LTBO

Details ICAO LTBO (USQ)
Name USAK
Region Turkey
Timezone Europe/Istanbul (UTC+3.0)
Plans Departing 0
Arriving 1
Stats Elevation 2,897 ft / 883 m (AMSL)
Location 38.681477° 29.471675°
Runways 1
Magnetic Variation 5.135° E
Sunrise 2017-06-26 02:40:17 UTC / 2017-06-26 05:40:17 Local
Sunset 2017-06-26 17:32:02 UTC / 2017-06-26 20:32:02 Local
Advertisement - Login to hide

Runways

ID Width Length Bearing (true) Bearing (mag) Surface Threshold Offset Overrun Length
09 98 ft / 30 m 8,366 ft / 2,550 m 90.95° 85.81° Concrete 0 ft / 0 m 98 ft / 30 m
27 98 ft / 30 m 8,366 ft / 2,550 m 270.97° 265.83° Concrete 0 ft / 0 m 98 ft / 30 m

Map

Weather


0- 5 10 15 20 25 30 35+ Temperature / ° C

Clouds and Precipitation
Forecast for 2017-06-26 12:00 UTC. Updated an hour ago

Ground ~20,000 ft ~40,000 ft Winds

METAR

LTBO 260750Z VRB02KT 9999 FEW040 SCT200 28/10 Q1014

TAF

Not found

Frequencies

Tower 121.70 MHz TWR
Approach 132.05 MHz MENDERES APP
Tower 121.42 MHz TWR
Warning: Do not use this data for real-world aviation or navigation. No guarantee of current accuracy is given.